Time;durP1;ratioP1;P1;durP2;ratioP2;P2;SDS_P1;SDS_P2;PMS_P1;PMS_P2;Temp;Humidity;BMP_temperature;BMP_pressure;BME280_temperature;BME280_humidity;BME280_pressure;Samples;Min_cycle;Max_cycle;Signal;HPM_P1;HPM_P2
2022/02/07 00:01:20;;;;;;;12.48;5.28;;;;;;;4.34;98.05;100966.13;10460607;28;20045;-77
2022/02/07 00:06:20;;;;;;;12.95;4.78;;;;;;;4.48;99.15;100974.59;10460008;28;20381;-77
2022/02/07 00:11:21;;;;;;;8.38;3.65;;;;;;;4.59;99.51;100987.75;10459023;28;20033;-78
2022/02/07 00:16:21;;;;;;;12.18;5.30;;;;;;;4.61;96.01;100993.81;10442450;28;20033;-78
2022/02/07 00:21:22;;;;;;;4.00;2.65;;;;;;;4.73;94.57;100999.75;10459277;28;20449;-78
2022/02/07 00:26:22;;;;;;;21.02;4.13;;;;;;;4.66;93.03;101037.94;10458726;28;20036;-77
2022/02/07 00:31:23;;;;;;;9.90;4.05;;;;;;;4.59;93.30;101052.09;10457716;28;20033;-77
2022/02/07 00:36:23;;;;;;;24.27;6.72;;;;;;;4.63;93.63;101074.97;10457010;28;20040;-78
2022/02/07 00:41:33;;;;;;;20.95;5.85;;;;;;;4.33;94.88;101068.97;10424148;28;20124;-78
2022/02/07 00:46:36;;;;;;;24.77;5.20;;;;;;;4.22;96.78;101092.50;10440654;28;20032;-77
2022/02/07 00:51:36;;;;;;;17.73;4.75;;;;;;;4.33;98.87;101103.81;10441593;28;20033;-78
2022/02/07 00:56:37;;;;;;;12.27;4.43;;;;;;;4.43;97.83;101119.84;10458383;28;20091;-78
2022/02/07 01:01:37;;;;;;;13.50;4.75;;;;;;;4.42;97.16;101148.50;10459387;28;20447;-77
2022/02/07 01:06:38;;;;;;;21.08;4.10;;;;;;;4.38;94.77;101152.50;10458645;28;20056;-77
2022/02/07 01:12:02;;;;;;;8.68;3.90;;;;;;;4.48;92.94;101162.31;10456616;28;20384;-78
2022/02/07 01:59:12;;;;;;;13.98;5.13;;;;;;;4.61;91.13;101385.41;10450087;28;20416;-77
2022/02/07 02:04:13;;;;;;;15.68;4.45;;;;;;;4.58;92.50;101391.91;10446733;28;20033;-76
2022/02/07 02:09:13;;;;;;;15.48;4.38;;;;;;;4.59;91.81;101406.16;10464402;28;20044;-76
2022/02/07 02:45:36;;;;;;;10.25;4.18;;;;;;;4.89;92.33;101490.94;10463098;28;20044;-77
2022/02/07 02:50:37;;;;;;;18.65;4.57;;;;;;;4.87;91.66;101501.81;10464400;28;20117;-77
2022/02/07 02:55:42;;;;;;;34.55;6.22;;;;;;;4.92;88.74;101516.66;10445287;28;20045;-76
2022/02/07 03:00:43;;;;;;;21.58;5.20;;;;;;;4.87;90.08;101517.91;10445933;28;20035;-76
2022/02/07 03:05:45;;;;;;;19.30;4.03;;;;;;;4.84;91.72;101546.88;10444443;28;20114;-76
2022/02/07 03:21:11;;;;;;;7.90;3.88;;;;;;;4.97;91.62;101584.97;10461798;28;19912;-77
2022/02/07 03:26:14;;;;;;;19.25;4.15;;;;;;;5.01;92.45;101596.28;10462542;28;20123;-76
2022/02/07 03:31:18;;;;;;;10.27;5.00;;;;;;;5.11;92.61;101606.03;10461162;28;20029;-76
2022/02/07 03:36:19;;;;;;;32.13;7.57;;;;;;;5.23;92.63;101646.13;10460578;28;20036;-77
2022/02/07 03:41:19;;;;;;;21.63;4.68;;;;;;;5.28;92.12;101651.91;10459108;28;20028;-76
2022/02/07 03:46:20;;;;;;;16.58;4.47;;;;;;;5.33;92.44;101658.56;10442682;28;20040;-76
2022/02/07 03:51:20;;;;;;;8.57;3.95;;;;;;;5.36;92.25;101684.28;10459828;28;20084;-77
2022/02/07 03:56:20;;;;;;;19.48;4.82;;;;;;;5.35;92.26;101698.69;10459012;28;20056;-77
2022/02/07 04:01:24;;;;;;;9.52;3.97;;;;;;;5.33;93.35;101704.22;10460775;28;20436;-77
2022/02/07 04:06:26;;;;;;;21.77;3.08;;;;;;;5.26;91.54;101712.97;10464996;28;20388;-77
2022/02/07 04:11:32;;;;;;;29.75;5.25;;;;;;;5.30;94.11;101715.22;10442396;28;20036;-77
2022/02/07 04:16:37;;;;;;;11.25;4.45;;;;;;;5.31;93.51;101738.41;10460308;28;20445;-77
2022/02/07 04:21:38;;;;;;;14.00;4.72;;;;;;;5.32;91.82;101750.84;10458174;28;20444;-77
2022/02/07 04:26:38;;;;;;;29.77;5.70;;;;;;;5.43;94.44;101757.06;10458835;28;20033;-77
2022/02/07 04:31:39;;;;;;;11.23;4.93;;;;;;;5.38;91.83;101781.66;10457509;28;20079;-77
2022/02/07 04:36:41;;;;;;;17.50;4.57;;;;;;;5.44;91.53;101782.94;10459336;28;20416;-77
2022/02/07 04:41:43;;;;;;;19.90;5.78;;;;;;;5.53;93.70;101815.16;10441719;28;20036;-77
2022/02/07 04:46:58;;;;;;;27.17;5.93;;;;;;;5.56;94.47;101816.72;10458599;28;20033;-77
2022/02/07 05:17:53;;;;;;;28.75;6.18;;;;;;;5.62;96.65;101899.44;10400362;28;20037;-78
2022/02/07 05:22:54;;;;;;;39.15;6.35;;;;;;;5.63;96.84;101911.88;10414447;28;20120;-78
2022/02/07 05:27:54;;;;;;;24.52;6.25;;;;;;;5.65;96.97;101922.47;10415197;28;20416;-77
2022/02/07 05:32:55;;;;;;;10.93;4.65;;;;;;;5.67;97.07;101937.47;10414789;28;20041;-77
2022/02/07 05:37:55;;;;;;;15.32;5.18;;;;;;;5.70;97.71;101947.09;10417492;28;20033;-79
2022/02/07 05:42:55;;;;;;;20.17;4.95;;;;;;;5.70;98.07;101942.56;10352401;28;20053;-76
2022/02/07 05:47:56;;;;;;;27.67;4.88;;;;;;;5.68;98.21;101952.63;10414676;28;20049;-76
2022/02/07 05:52:58;;;;;;;19.40;5.07;;;;;;;5.60;97.88;101955.16;10414140;28;20498;-76
2022/02/07 05:57:58;;;;;;;15.65;5.32;;;;;;;5.55;98.64;101976.19;10414191;28;20068;-77
2022/02/07 06:02:59;;;;;;;25.50;5.93;;;;;;;5.46;98.40;101975.22;10397148;28;20040;-77
2022/02/07 06:08:00;;;;;;;23.58;4.82;;;;;;;5.50;98.31;101995.44;10380383;28;20026;-77
2022/02/07 06:13:00;;;;;;;16.02;6.07;;;;;;;5.57;99.83;101995.72;10413740;28;20034;-77
2022/02/07 06:18:01;;;;;;;13.63;4.78;;;;;;;5.65;99.81;102005.78;10414739;28;20030;-77
2022/02/07 06:23:01;;;;;;;31.67;6.72;;;;;;;5.58;99.79;102010.84;10413613;28;20380;-77
2022/02/07 06:28:02;;;;;;;30.20;6.32;;;;;;;5.37;98.19;102016.31;10414233;28;20068;-78
2022/02/07 06:33:05;;;;;;;17.10;4.35;;;;;;;5.38;99.75;102041.34;10396234;28;20033;-78
2022/02/07 06:38:05;;;;;;;10.75;4.90;;;;;;;5.50;100.00;102043.81;10380783;28;20029;-77
2022/02/07 06:43:05;;;;;;;22.67;5.35;;;;;;;5.58;100.00;102069.97;10418185;28;20482;-77
2022/02/07 06:48:06;;;;;;;18.88;5.72;;;;;;;5.67;100.00;102090.66;10420436;28;20045;-77
2022/02/07 06:53:06;;;;;;;20.23;4.32;;;;;;;5.74;100.00;102099.91;10402108;28;20033;-78
2022/02/07 06:58:07;;;;;;;26.50;6.00;;;;;;;5.77;100.00;102120.25;10420026;28;20136;-77
2022/02/07 07:03:14;;;;;;;22.20;4.88;;;;;;;5.82;100.00;102137.69;10419992;28;20045;-77
2022/02/07 07:08:14;;;;;;;11.23;4.15;;;;;;;5.82;100.00;102148.44;10402916;28;20494;-77
2022/02/07 07:13:20;;;;;;;10.43;3.85;;;;;;;5.84;100.00;102145.63;10419537;28;20040;-77
2022/02/07 07:18:21;;;;;;;20.95;6.18;;;;;;;5.87;100.00;102148.03;10421059;28;20033;-77
2022/02/07 07:23:21;;;;;;;19.83;4.38;;;;;;;5.87;100.00;102164.19;10401043;28;20042;-77
2022/02/07 07:28:23;;;;;;;13.20;5.55;;;;;;;5.81;100.00;102191.59;10418908;28;20048;-77
2022/02/07 07:33:25;;;;;;;12.43;5.55;;;;;;;5.88;100.00;102203.50;10418501;28;20080;-77
2022/02/07 07:38:26;;;;;;;25.10;6.63;;;;;;;5.92;100.00;102225.59;10401271;28;20118;-77
2022/02/07 07:43:26;;;;;;;24.92;6.50;;;;;;;5.98;100.00;102228.63;10400989;28;20068;-77
2022/02/07 07:48:27;;;;;;;42.05;6.30;;;;;;;5.98;100.00;102243.91;10401766;28;20052;-76
2022/02/07 08:03:57;;;;;;;19.98;4.70;;;;;;;6.15;100.00;102280.91;10417858;28;20534;-77
2022/02/07 08:14:06;;;;;;;18.48;5.38;;;;;;;6.29;100.00;102296.72;10400832;28;20056;-77
2022/02/07 08:19:08;;;;;;;23.67;5.82;;;;;;;6.39;100.00;102298.59;10399602;28;20037;-77
2022/02/07 08:24:08;;;;;;;15.93;5.40;;;;;;;6.47;100.00;102312.19;10416528;28;20034;-77
2022/02/07 08:29:09;;;;;;;24.83;5.05;;;;;;;6.58;100.00;102325.56;10416557;28;20061;-77
2022/02/07 08:34:09;;;;;;;30.58;6.78;;;;;;;6.53;100.00;102325.94;10416342;28;20052;-77
2022/02/07 08:39:09;;;;;;;21.50;5.03;;;;;;;6.60;100.00;102323.56;10416012;28;20040;-77
2022/02/07 08:44:10;;;;;;;32.17;5.63;;;;;;;6.64;100.00;102329.56;10416191;28;20052;-77
2022/02/07 08:49:10;;;;;;;19.38;3.78;;;;;;;6.66;100.00;102360.72;10417929;28;20029;-77
2022/02/07 08:54:17;;;;;;;17.33;6.45;;;;;;;6.59;100.00;102375.72;10397001;28;20468;-77
2022/02/07 08:59:19;;;;;;;;;;;;;;;6.64;100.00;102389.63;10399584;28;20033;-77
2022/02/07 09:05:15;;;;;;;13.75;5.05;;;;;;;6.54;100.00;102410.25;10414789;28;20295;-77
2022/02/07 09:09:44;;;;;;;20.13;5.30;;;;;;;6.47;100.00;102430.59;10409547;28;20056;-77
2022/02/07 09:14:58;;;;;;;28.13;7.68;;;;;;;6.50;100.00;102441.94;10414852;28;20099;-77
2022/02/07 09:19:58;;;;;;;22.00;5.22;;;;;;;6.60;100.00;102447.38;10415025;28;20388;-77
2022/02/07 09:24:59;;;;;;;18.25;4.25;;;;;;;6.79;100.00;102445.78;10396589;28;20033;-77
2022/02/07 09:29:59;;;;;;;18.15;4.25;;;;;;;7.22;100.00;102457.16;10414584;28;20131;-77
2022/02/07 09:34:59;;;;;;;11.98;4.95;;;;;;;7.10;100.00;102463.63;10414370;28;20046;-77
2022/02/07 09:40:00;;;;;;;18.77;4.80;;;;;;;7.19;100.00;102478.97;10414193;28;20038;-76
2022/02/07 09:45:12;;;;;;;35.38;5.43;;;;;;;7.27;100.00;102489.06;10396734;28;20116;-77
2022/02/07 09:50:13;;;;;;;17.13;4.35;;;;;;;7.40;99.17;102504.97;10414019;28;20465;-77
2022/02/07 09:55:13;;;;;;;26.88;5.55;;;;;;;7.28;100.00;102536.59;10396430;28;20061;-78
2022/02/07 10:00:19;;;;;;;32.05;4.85;;;;;;;7.60;100.00;102539.09;10414070;28;20115;-78
2022/02/07 10:05:24;;;;;;;14.32;5.72;;;;;;;8.35;100.00;102539.47;10417976;28;20033;-78
2022/02/07 10:16:00;;;;;;;9.48;3.05;;;;;;;7.96;97.82;102552.09;10398433;28;20055;-78
2022/02/07 10:37:53;;;;;;;17.55;4.43;;;;;;;8.31;98.96;102595.59;10406004;28;20037;-78
2022/02/07 10:43:10;;;;;;;8.15;3.95;;;;;;;8.47;99.09;102607.72;10408574;28;20045;-78
2022/02/07 10:48:12;;;;;;;16.10;3.05;;;;;;;8.22;98.69;102599.13;10404757;28;20061;-78
2022/02/07 10:53:12;;;;;;;21.90;3.20;;;;;;;7.89;96.21;102608.44;10419968;28;20036;-78
2022/02/07 10:58:13;;;;;;;9.95;3.25;;;;;;;8.69;96.30;102601.16;10402263;28;20057;-78
2022/02/07 11:03:20;;;;;;;13.23;3.17;;;;;;;9.44;97.58;102594.00;10385808;28;20036;-78
2022/02/07 11:08:32;;;;;;;9.82;2.92;;;;;;;9.36;97.17;102586.66;10403828;28;20484;-79
2022/02/07 11:18:58;;;;;;;13.50;3.90;;;;;;;9.87;97.70;102597.94;10402662;28;20040;-79
2022/02/07 11:29:38;;;;;;;10.38;3.13;;;;;;;11.29;93.74;102580.72;10418544;28;20037;-79
2022/02/07 11:34:43;;;;;;;9.55;2.83;;;;;;;11.44;89.33;102578.25;10418331;28;20037;-80
2022/02/07 11:39:47;;;;;;;11.35;3.42;;;;;;;11.54;87.66;102578.13;10418449;28;20149;-79
2022/02/07 11:44:53;;;;;;;11.05;3.15;;;;;;;10.66;90.55;102578.28;10403096;28;20392;-79
2022/02/07 11:50:03;;;;;;;8.60;3.70;;;;;;;10.47;89.33;102582.00;10402794;28;20428;-80
2022/02/07 11:55:06;;;;;;;14.60;3.67;;;;;;;11.03;89.82;102569.91;10400822;28;20451;-80
2022/02/07 12:00:20;;;;;;;15.60;3.85;;;;;;;11.36;88.82;102576.38;10400512;28;20036;-79
2022/02/07 12:05:22;;;;;;;9.63;2.92;;;;;;;11.60;88.01;102575.63;10417647;28;20095;-79
2022/02/07 12:10:27;;;;;;;11.48;3.47;;;;;;;12.07;87.72;102585.16;10400000;28;20026;-79
2022/02/07 12:15:34;;;;;;;9.18;2.80;;;;;;;10.83;86.90;102601.78;10417635;28;20030;-79
2022/02/07 12:20:37;;;;;;;7.90;2.60;;;;;;;10.77;86.12;102607.81;10395431;28;20029;-79
2022/02/07 12:25:49;;;;;;;7.18;3.08;;;;;;;11.19;87.17;102609.81;10399476;28;20522;-79
2022/02/07 12:36:08;;;;;;;9.40;1.92;;;;;;;10.96;91.18;102622.22;10417032;28;20041;-79
2022/02/07 12:41:11;;;;;;;15.30;4.22;;;;;;;10.23;85.43;102626.75;10397990;28;20049;-79
2022/02/07 12:46:13;;;;;;;20.23;2.97;;;;;;;10.07;87.68;102636.56;10416520;28;20429;-79
2022/02/07 12:51:15;;;;;;;9.70;2.58;;;;;;;9.94;92.59;102640.47;10415495;28;20041;-79
2022/02/07 12:56:15;;;;;;;6.18;2.45;;;;;;;10.69;91.98;102626.75;10416308;28;20058;-79
2022/02/07 13:01:18;;;;;;;7.15;3.42;;;;;;;10.61;81.61;102640.19;10398295;28;20034;-79
2022/02/07 13:06:30;;;;;;;20.30;3.95;;;;;;;10.07;87.97;102639.25;10398887;28;20037;-79
2022/02/07 13:11:34;;;;;;;3.47;1.98;;;;;;;10.47;86.90;102634.31;10416203;28;20480;-79
2022/02/07 13:16:34;;;;;;;7.10;2.38;;;;;;;10.72;88.38;102626.44;10415889;28;20030;-79
2022/02/07 13:21:40;;;;;;;4.82;2.97;;;;;;;10.83;87.30;102633.44;10383157;28;20026;-79
2022/02/07 13:26:59;;;;;;;7.27;2.03;;;;;;;10.61;82.77;102649.16;10415372;28;20096;-79
2022/02/07 13:32:02;;;;;;;7.20;2.42;;;;;;;10.66;88.12;102646.88;10415024;28;20029;-79
2022/02/07 13:37:07;;;;;;;3.25;2.95;;;;;;;10.39;80.96;102653.19;10397562;28;20030;-79
2022/02/07 13:42:10;;;;;;;5.43;2.35;;;;;;;10.13;86.52;102663.03;10414556;28;20392;-79
2022/02/07 13:47:11;;;;;;;16.08;4.75;;;;;;;9.95;86.32;102660.25;10415318;28;20499;-78
2022/02/07 13:52:11;;;;;;;15.45;2.88;;;;;;;9.34;90.05;102661.63;10401941;28;20037;-78
2022/02/07 13:57:12;;;;;;;21.65;3.60;;;;;;;9.24;87.52;102677.88;10404920;28;20058;-78
2022/02/07 14:02:26;;;;;;;5.00;2.83;;;;;;;8.97;88.00;102657.03;10422980;28;20440;-79
2022/02/07 14:07:26;;;;;;;11.48;4.20;;;;;;;9.03;86.56;102655.56;10405930;28;20037;-78
2022/02/07 14:12:27;;;;;;;11.32;2.90;;;;;;;8.76;89.47;102659.88;10404409;28;20041;-78
2022/02/07 14:17:27;;;;;;;3.65;2.45;;;;;;;8.79;92.70;102661.44;10422817;28;20041;-79
2022/02/07 14:22:35;;;;;;;9.77;2.60;;;;;;;8.73;90.17;102657.44;10421820;28;20041;-78
2022/02/07 14:27:35;;;;;;;15.88;2.40;;;;;;;8.53;88.36;102666.56;10403791;28;20041;-78
2022/02/07 14:32:35;;;;;;;5.32;1.52;;;;;;;8.29;87.06;102672.28;10403988;28;20033;-78
2022/02/07 14:37:36;;;;;;;7.85;2.40;;;;;;;8.26;89.43;102677.97;10424684;28;20037;-78
2022/02/07 14:42:37;;;;;;;5.97;2.58;;;;;;;8.35;92.79;102669.03;10421560;28;20033;-78
2022/02/07 14:47:50;;;;;;;6.57;2.53;;;;;;;8.19;85.96;102666.03;10403338;28;20037;-78
2022/02/07 14:52:51;;;;;;;5.63;2.80;;;;;;;8.25;90.19;102668.16;10420037;28;20412;-78
2022/02/07 14:57:52;;;;;;;11.50;2.38;;;;;;;8.28;90.49;102660.66;10420441;28;20056;-79
2022/02/07 15:02:53;;;;;;;7.35;2.00;;;;;;;8.08;89.06;102673.25;10385897;28;20484;-78
2022/02/07 15:07:53;;;;;;;1.60;1.40;;;;;;;7.36;88.39;102676.03;10402482;28;20033;-78
2022/02/07 15:12:53;;;;;;;3.88;2.35;;;;;;;6.79;89.53;102686.25;10419782;28;20465;-78
2022/02/07 15:17:55;;;;;;;3.80;2.55;;;;;;;6.84;88.76;102691.28;10419229;28;20037;-78
2022/02/07 15:22:56;;;;;;;14.80;2.58;;;;;;;7.00;90.91;102683.59;10420267;28;20164;-78
2022/02/07 15:28:00;;;;;;;18.95;3.40;;;;;;;6.95;90.58;102704.69;10419900;28;20508;-78
2022/02/07 15:33:04;;;;;;;4.55;2.17;;;;;;;6.36;90.15;102691.69;10401561;28;20052;-78
2022/02/07 15:38:06;;;;;;;4.88;2.10;;;;;;;6.11;91.70;102704.44;10401087;28;20393;-77
2022/02/07 15:43:06;;;;;;;9.00;2.67;;;;;;;5.89;92.02;102693.66;10418973;28;20052;-78
2022/02/07 15:48:07;;;;;;;3.20;2.80;;;;;;;5.77;93.60;102709.78;10418624;28;20038;-77
2022/02/07 15:53:07;;;;;;;3.83;2.45;;;;;;;5.72;93.47;102695.88;10417702;28;20121;-77
2022/02/07 15:58:08;;;;;;;13.35;3.03;;;;;;;5.60;93.56;102695.00;10400356;28;20053;-77
2022/02/07 16:03:08;;;;;;;5.07;2.60;;;;;;;5.63;93.45;102699.28;10417652;28;20053;-77
2022/02/07 16:08:08;;;;;;;10.10;3.70;;;;;;;5.69;94.43;102682.66;10417825;28;20403;-77
2022/02/07 16:18:17;;;;;;;9.23;4.07;;;;;;;5.75;96.05;102671.44;10416599;28;20376;-77
2022/02/07 16:23:18;;;;;;;9.60;3.47;;;;;;;5.82;95.95;102671.78;10398983;28;20033;-77
2022/02/07 16:28:19;;;;;;;11.90;3.30;;;;;;;5.87;94.70;102674.97;10416974;28;20029;-77
2022/02/07 16:33:19;;;;;;;16.77;3.50;;;;;;;6.00;95.97;102680.25;10416890;28;20469;-77
2022/02/07 16:38:19;;;;;;;8.93;3.22;;;;;;;5.97;95.33;102692.13;10416469;28;20049;-77
2022/02/07 16:43:25;;;;;;;8.75;4.22;;;;;;;6.02;95.29;102686.34;10416636;28;20037;-77
2022/02/07 16:48:29;;;;;;;5.93;3.43;;;;;;;5.96;94.72;102689.53;10416404;28;20457;-77
2022/02/07 16:53:29;;;;;;;7.80;2.95;;;;;;;5.95;94.80;102693.22;10398837;28;20494;-77
2022/02/07 16:58:29;;;;;;;8.30;5.05;;;;;;;5.90;94.37;102690.00;10415982;28;20115;-77
2022/02/07 17:03:30;;;;;;;9.95;3.53;;;;;;;5.87;94.26;102695.59;10415721;28;20042;-77
2022/02/07 17:08:30;;;;;;;21.60;3.85;;;;;;;5.86;94.66;102699.28;10398668;28;20072;-77
2022/02/07 17:13:34;;;;;;;10.38;3.45;;;;;;;5.87;95.13;102699.19;10415673;28;20039;-75
2022/02/07 17:18:34;;;;;;;8.57;3.28;;;;;;;5.96;95.63;102700.28;10415803;28;20041;-77
2022/02/07 17:23:35;;;;;;;18.45;4.30;;;;;;;6.01;96.35;102709.69;10414931;28;20120;-75
2022/02/07 17:28:36;;;;;;;12.23;3.78;;;;;;;5.90;93.28;102698.06;10396905;28;20091;-77
2022/02/07 17:33:37;;;;;;;9.90;3.60;;;;;;;5.92;95.59;102688.03;10397278;28;20133;-76
2022/02/07 17:38:38;;;;;;;10.43;4.45;;;;;;;5.87;96.28;102684.84;10380822;28;20124;-76
2022/02/07 17:43:43;;;;;;;17.63;4.35;;;;;;;5.82;97.08;102680.72;10398305;28;20055;-77
2022/02/07 17:48:44;;;;;;;9.90;3.75;;;;;;;5.77;97.46;102677.53;10415241;28;20048;-76
2022/02/07 17:53:45;;;;;;;7.07;3.30;;;;;;;5.72;95.89;102670.81;10414046;28;20481;-76
2022/02/07 17:58:45;;;;;;;10.15;5.13;;;;;;;5.76;97.27;102670.44;10414608;28;20057;-77
2022/02/07 18:03:46;;;;;;;9.98;4.15;;;;;;;5.66;97.87;102658.72;10380663;28;20488;-77
2022/02/07 18:08:46;;;;;;;17.65;4.00;;;;;;;5.55;97.36;102653.34;10414355;28;20041;-76
2022/02/07 18:13:49;;;;;;;22.70;5.10;;;;;;;5.49;98.04;102640.41;10396708;28;20503;-76
2022/02/07 18:18:51;;;;;;;14.60;4.13;;;;;;;5.44;98.14;102650.66;10414149;28;20056;-76
2022/02/07 18:23:52;;;;;;;10.35;4.32;;;;;;;5.31;98.55;102662.34;10413593;28;20040;-76
2022/02/07 18:28:54;;;;;;;14.57;3.22;;;;;;;5.29;98.99;102661.59;10380000;28;20030;-76
2022/02/07 18:33:54;;;;;;;11.55;4.03;;;;;;;5.40;99.28;102643.81;10413890;28;20072;-75
2022/02/07 18:38:57;;;;;;;19.52;4.60;;;;;;;5.55;99.82;102662.28;10401439;28;20469;-76
2022/02/07 18:43:58;;;;;;;12.82;4.85;;;;;;;5.62;98.63;102649.19;10403388;28;20391;-76
2022/02/07 18:48:58;;;;;;;9.82;3.17;;;;;;;5.67;98.08;102646.13;10403482;28;20033;-76
2022/02/07 18:53:59;;;;;;;17.58;3.90;;;;;;;5.73;99.00;102643.81;10420148;28;20424;-76
2022/02/07 18:59:12;;;;;;;21.55;5.10;;;;;;;5.78;99.31;102643.47;10420366;28;20080;-76
2022/02/07 19:04:14;;;;;;;14.93;2.95;;;;;;;5.89;100.00;102638.06;10420902;28;20041;-76
2022/02/07 19:09:16;;;;;;;25.67;4.88;;;;;;;6.01;99.90;102633.56;10423451;28;20048;-76
2022/02/07 19:14:16;;;;;;;18.42;5.35;;;;;;;6.13;99.90;102626.31;10402440;28;20424;-76
2022/02/07 19:19:35;;;;;;;13.43;4.47;;;;;;;6.22;100.00;102612.97;10403671;28;20049;-76
2022/02/07 19:24:40;;;;;;;20.50;5.63;;;;;;;6.16;98.78;102620.66;10420077;28;20029;-76
2022/02/07 19:29:44;;;;;;;18.25;6.20;;;;;;;6.17;99.10;102615.19;10419135;28;20033;-76
2022/02/07 19:34:57;;;;;;;14.43;4.68;;;;;;;6.13;98.80;102615.56;10385749;28;20021;-76
2022/02/07 19:39:58;;;;;;;25.70;4.97;;;;;;;6.04;99.09;102606.41;10418431;28;20040;-76
2022/02/07 19:45:13;;;;;;;13.25;4.88;;;;;;;6.06;99.06;102609.81;10401187;28;20480;-76
2022/02/07 19:50:14;;;;;;;9.68;4.18;;;;;;;6.11;98.93;102609.44;10418535;28;20029;-76
2022/02/07 19:55:15;;;;;;;13.73;4.68;;;;;;;6.17;98.51;102608.94;10415297;28;20049;-76
2022/02/07 20:00:17;;;;;;;17.63;5.57;;;;;;;6.20;98.64;102609.53;10399729;28;20034;-75
2022/02/07 20:05:18;;;;;;;13.18;4.07;;;;;;;6.11;98.94;102610.28;10401096;28;20089;-75
2022/02/07 20:10:18;;;;;;;20.85;5.03;;;;;;;6.19;99.03;102623.97;10417878;28;20041;-75
2022/02/07 20:15:19;;;;;;;24.33;5.40;;;;;;;6.26;99.59;102616.25;10417270;28;20044;-75
2022/02/07 20:20:19;;;;;;;19.80;5.10;;;;;;;6.40;99.80;102617.78;10399064;28;20041;-75
2022/02/07 20:25:19;;;;;;;15.63;5.05;;;;;;;6.45;100.00;102626.34;10416125;28;20068;-74
2022/02/07 20:30:20;;;;;;;16.95;5.85;;;;;;;6.59;100.00;102611.72;10416438;28;20040;-75
2022/02/07 20:35:21;;;;;;;28.05;6.50;;;;;;;6.77;100.00;102617.41;10398823;28;20466;-75
2022/02/07 20:40:22;;;;;;;14.48;5.32;;;;;;;6.87;100.00;102597.63;10415734;28;20038;-74
2022/02/07 20:45:22;;;;;;;20.08;4.80;;;;;;;6.96;100.00;102610.31;10415950;28;20030;-75
2022/02/07 20:50:23;;;;;;;15.25;5.40;;;;;;;7.04;100.00;102617.72;10415996;28;20494;-75
2022/02/07 20:55:23;;;;;;;24.27;6.80;;;;;;;7.14;100.00;102617.75;10397257;28;20089;-75
2022/02/07 21:00:29;;;;;;;23.00;5.40;;;;;;;7.20;100.00;102609.16;10415214;28;20056;-75
2022/02/07 21:05:33;;;;;;;22.95;8.13;;;;;;;7.24;100.00;102602.50;10397852;28;20179;-74
2022/02/07 21:10:36;;;;;;;14.75;7.05;;;;;;;7.34;100.00;102614.22;10398369;28;20468;-75
2022/02/07 21:15:38;;;;;;;18.63;7.13;;;;;;;7.34;100.00;102610.63;10412874;28;20096;-74
2022/02/07 21:20:39;;;;;;;26.80;7.10;;;;;;;7.40;100.00;102612.78;10414141;28;20079;-76
2022/02/07 21:25:40;;;;;;;42.83;8.63;;;;;;;7.37;100.00;102613.06;10413544;28;20056;-76
2022/02/07 21:30:40;;;;;;;18.73;8.38;;;;;;;7.38;100.00;102621.03;10413756;28;20033;-76
2022/02/07 21:35:41;;;;;;;21.27;6.60;;;;;;;7.14;100.00;102607.84;10414862;28;20033;-75
2022/02/07 21:40:41;;;;;;;40.28;8.38;;;;;;;7.08;100.00;102608.38;10414877;28;20038;-76
2022/02/07 21:45:44;;;;;;;21.63;7.15;;;;;;;7.01;100.00;102609.03;10414813;28;20056;-76
2022/02/07 21:50:44;;;;;;;22.05;7.68;;;;;;;7.01;100.00;102599.13;10414909;28;20029;-75
2022/02/07 21:55:45;;;;;;;26.25;6.35;;;;;;;6.98;100.00;102607.47;10422872;28;20498;-76
2022/02/07 22:00:46;;;;;;;21.25;6.57;;;;;;;6.97;100.00;102606.59;10455800;28;20045;-76
2022/02/07 22:05:47;;;;;;;24.23;6.65;;;;;;;6.99;100.00;102599.25;10437769;28;20475;-76
2022/02/07 22:10:55;;;;;;;34.05;9.10;;;;;;;7.07;100.00;102605.81;10438844;28;20556;-76
2022/02/07 22:16:08;;;;;;;20.38;6.60;;;;;;;7.07;100.00;102601.28;10432145;28;20056;-76
2022/02/07 22:21:12;;;;;;;27.67;6.18;;;;;;;7.10;100.00;102606.41;10463462;28;20021;-76
2022/02/07 22:26:13;;;;;;;16.20;5.45;;;;;;;7.15;100.00;102614.94;10463797;28;20025;-76
2022/02/07 22:31:21;;;;;;;23.92;5.40;;;;;;;7.23;100.00;102604.34;10462815;28;20021;-76
2022/02/07 22:36:22;;;;;;;18.58;5.45;;;;;;;7.23;100.00;102603.50;10446415;28;20392;-76
2022/02/07 22:41:23;;;;;;;21.98;6.25;;;;;;;7.29;100.00;102602.97;10462819;28;20043;-76
2022/02/07 22:46:23;;;;;;;34.00;5.05;;;;;;;7.34;100.00;102600.72;10428617;28;20032;-76
2022/02/07 22:51:25;;;;;;;33.95;7.55;;;;;;;7.37;100.00;102595.06;10427669;28;20418;-77
2022/02/07 22:56:26;;;;;;;23.85;7.00;;;;;;;7.43;100.00;102599.03;10444367;28;20052;-77
2022/02/07 23:01:26;;;;;;;10.30;5.00;;;;;;;7.50;100.00;102586.75;10428103;28;20047;-77
2022/02/07 23:06:28;;;;;;;28.17;4.57;;;;;;;7.51;100.00;102593.84;10411299;28;20060;-77
2022/02/07 23:37:30;;;;;;;17.10;4.30;;;;;;;7.79;100.00;102575.22;10463745;28;20033;-77
2022/02/07 23:42:51;;;;;;;22.15;5.35;;;;;;;7.84;100.00;102567.53;10444579;28;20411;-77
2022/02/07 23:47:59;;;;;;;21.00;4.95;;;;;;;7.86;100.00;102558.31;10460200;28;20036;-76
2022/02/07 23:53:44;;;;;;;11.60;4.05;;;;;;;7.91;100.00;102547.09;10459442;28;20036;-76
2022/02/07 23:58:32;;;;;;;19.73;5.50;;;;;;;7.94;100.00;102544.13;10432058;28;20068;-76
